createdAt,value
2023-02-07T00:01:32.677Z,70.78
2023-02-07T00:04:35.510Z,70.89
2023-02-07T00:07:39.028Z,70.64
2023-02-07T00:10:43.265Z,71.58
2023-02-07T00:13:47.777Z,72.31
2023-02-07T00:16:50.507Z,72.19
2023-02-07T00:19:53.326Z,71.71
2023-02-07T00:22:56.066Z,71.96
2023-02-07T00:26:00.819Z,71.67
2023-02-07T00:29:04.141Z,72.14
2023-02-07T00:32:08.362Z,72.11
2023-02-07T00:35:11.312Z,72.19
2023-02-07T00:38:14.547Z,72.35
2023-02-07T00:41:20.136Z,72.34
2023-02-07T00:44:23.257Z,72.95
2023-02-07T00:47:27.098Z,73.10
2023-02-07T00:50:30.290Z,73.17
2023-02-07T00:53:33.260Z,74.09
2023-02-07T00:56:38.503Z,72.38
2023-02-07T00:59:41.291Z,72.60
2023-02-07T01:02:47.740Z,73.08
2023-02-07T01:05:50.611Z,73.07
2023-02-07T01:08:56.611Z,73.44
2023-02-07T01:12:00.892Z,73.23
2023-02-07T01:15:05.209Z,73.22
2023-02-07T01:18:08.979Z,72.88
2023-02-07T01:21:16.054Z,73.15
2023-02-07T01:24:18.822Z,73.22
2023-02-07T01:27:24.179Z,72.94
2023-02-07T01:30:28.002Z,73.15
2023-02-07T01:33:31.146Z,73.01
2023-02-07T01:36:34.165Z,73.89
2023-02-07T01:39:36.916Z,73.35
2023-02-07T01:42:41.204Z,73.57
2023-02-07T01:45:44.356Z,73.96
2023-02-07T01:48:47.451Z,73.54
2023-02-07T01:51:56.290Z,74.29
2023-02-07T01:55:02.772Z,74.81
2023-02-07T01:58:09.159Z,73.73
2023-02-07T02:01:19.264Z,73.77
2023-02-07T02:04:22.725Z,74.06
2023-02-07T02:07:27.373Z,74.62
2023-02-07T02:10:49.221Z,74.89
2023-02-07T02:14:04.790Z,74.22
2023-02-07T02:17:21.630Z,73.99
2023-02-07T02:20:45.225Z,73.43
2023-02-07T02:24:07.878Z,74.03
2023-02-07T02:27:17.302Z,74.45
2023-02-07T02:31:01.865Z,74.09
2023-02-07T02:34:12.714Z,74.23
2023-02-07T02:37:25.074Z,74.92
2023-02-07T02:40:39.166Z,74.59
2023-02-07T02:43:46.262Z,74.46
2023-02-07T02:46:52.890Z,74.29
2023-02-07T02:49:58.344Z,74.85
2023-02-07T02:53:02.524Z,75.35
2023-02-07T02:56:17.908Z,75.02
2023-02-07T02:59:41.427Z,75.08
2023-02-07T03:02:53.425Z,74.53
2023-02-07T03:06:11.709Z,74.69
2023-02-07T03:09:25.617Z,74.22
2023-02-07T03:12:39.498Z,74.25
2023-02-07T03:15:50.830Z,73.47
2023-02-07T03:19:04.317Z,73.44
2023-02-07T03:22:13.195Z,73.53
2023-02-07T03:25:21.588Z,73.78
2023-02-07T03:28:26.442Z,73.44
2023-02-07T03:31:31.690Z,73.31
2023-02-07T03:34:38.965Z,73.67
2023-02-07T03:37:48.086Z,73.07
2023-02-07T03:40:56.584Z,73.81
2023-02-07T03:44:01.181Z,72.52
2023-02-07T03:47:04.933Z,73.60
2023-02-07T03:50:08.293Z,73.78
2023-02-07T03:53:12.468Z,73.04
2023-02-07T03:56:15.184Z,73.54
2023-02-07T03:59:18.034Z,73.21
2023-02-07T04:02:20.853Z,72.52
2023-02-07T04:05:43.899Z,72.95
2023-02-07T04:08:48.110Z,72.48
2023-02-07T04:11:51.614Z,72.28
2023-02-07T04:14:54.451Z,71.90
2023-02-07T04:17:57.244Z,71.83
2023-02-07T04:21:04.296Z,71.78
2023-02-07T04:24:09.588Z,70.93
2023-02-07T04:27:12.528Z,71.49
2023-02-07T04:30:15.392Z,71.75
2023-02-07T04:33:18.800Z,72.05
2023-02-07T04:36:22.741Z,71.54
2023-02-07T04:39:27.478Z,71.97
2023-02-07T04:42:30.379Z,71.95
2023-02-07T04:45:33.242Z,71.27
2023-02-07T04:48:37.674Z,71.27
2023-02-07T04:51:41.114Z,71.20
2023-02-07T04:54:46.222Z,70.17
2023-02-07T04:57:49.460Z,71.34
2023-02-07T05:00:54.489Z,71.60
2023-02-07T05:03:57.441Z,71.54
2023-02-07T05:07:00.335Z,70.75
2023-02-07T05:10:05.324Z,70.80
2023-02-07T05:13:09.549Z,70.62
2023-02-07T05:16:13.878Z,71.09
2023-02-07T05:19:16.735Z,70.96
2023-02-07T05:22:19.562Z,70.48
2023-02-07T05:25:23.818Z,69.93
2023-02-07T05:28:26.696Z,69.96
2023-02-07T05:31:48.598Z,69.51
2023-02-07T05:34:51.485Z,69.59
2023-02-07T05:37:54.252Z,69.66
2023-02-07T05:40:58.967Z,69.61
2023-02-07T05:44:01.805Z,69.45
2023-02-07T05:47:04.588Z,69.16
2023-02-07T05:50:07.881Z,68.87
2023-02-07T05:53:12.921Z,68.74
2023-02-07T05:56:18.104Z,69.67
2023-02-07T05:59:20.922Z,69.65
2023-02-07T06:02:24.374Z,69.20
2023-02-07T06:05:31.845Z,69.30
2023-02-07T06:08:34.841Z,69.33
2023-02-07T06:11:39.025Z,68.40
2023-02-07T06:14:41.805Z,67.72
2023-02-07T06:17:44.762Z,68.07
2023-02-07T06:20:50.704Z,66.65
2023-02-07T06:23:53.873Z,66.79
2023-02-07T06:26:58.093Z,66.25
2023-02-07T06:30:00.883Z,66.58
2023-02-07T06:33:03.986Z,66.46
2023-02-07T06:36:07.457Z,66.58
2023-02-07T06:39:11.252Z,67.53
2023-02-07T06:42:15.936Z,65.75
2023-02-07T06:45:18.855Z,65.92
2023-02-07T06:48:22.034Z,67.04
2023-02-07T06:51:25.271Z,66.06
2023-02-07T06:54:28.322Z,65.68
2023-02-07T06:57:32.553Z,65.96
2023-02-07T07:00:38.916Z,64.98
2023-02-07T07:03:41.934Z,63.95
2023-02-07T07:06:44.742Z,62.51
2023-02-07T07:09:48.243Z,61.31
2023-02-07T07:12:53.449Z,60.99
2023-02-07T07:15:56.432Z,59.06
2023-02-07T07:19:00.833Z,57.17
2023-02-07T07:22:53.432Z,57.51
2023-02-07T07:25:56.379Z,56.88
2023-02-07T07:29:02.386Z,55.89
2023-02-07T07:32:06.500Z,55.73
2023-02-07T07:35:09.799Z,55.48
2023-02-07T07:38:12.866Z,54.95
2023-02-07T07:41:15.770Z,54.93
2023-02-07T07:44:20.385Z,53.48
2023-02-07T07:47:25.110Z,53.33
2023-02-07T07:50:28.523Z,51.53
2023-02-07T07:53:31.512Z,50.30
2023-02-07T07:56:36.579Z,51.25
2023-02-07T07:59:41.049Z,51.10
2023-02-07T08:02:44.122Z,52.32
2023-02-07T08:05:48.731Z,53.43
2023-02-07T08:08:51.515Z,52.75
2023-02-07T08:11:54.320Z,51.65
2023-02-07T08:14:58.759Z,52.33
2023-02-07T08:18:01.646Z,49.96
2023-02-07T08:21:08.095Z,50.13
2023-02-07T08:24:13.170Z,50.83
2023-02-07T08:27:15.983Z,50.73
2023-02-07T08:30:21.488Z,51.72
2023-02-07T08:33:29.418Z,52.74
2023-02-07T08:36:36.000Z,51.31
2023-02-07T08:39:38.985Z,50.11
2023-02-07T08:42:41.920Z,49.75
2023-02-07T08:45:48.824Z,49.25
2023-02-07T08:48:51.873Z,48.54
2023-02-07T08:51:55.246Z,49.13
2023-02-07T08:54:58.516Z,47.06
2023-02-07T08:58:01.644Z,44.64
2023-02-07T09:01:11.183Z,42.40
2023-02-07T09:04:14.204Z,40.02
2023-02-07T09:07:19.883Z,38.37
2023-02-07T09:10:22.972Z,38.64
2023-02-07T09:13:25.965Z,37.84
2023-02-07T09:16:32.958Z,38.35
2023-02-07T09:19:36.760Z,40.25
2023-02-07T09:22:58.348Z,37.63
2023-02-07T09:26:03.712Z,38.40
2023-02-07T09:29:10.268Z,36.60
2023-02-07T09:32:14.904Z,34.98
2023-02-07T09:35:18.606Z,35.66
2023-02-07T09:38:23.678Z,35.51
2023-02-07T09:41:33.978Z,36.05
2023-02-07T09:44:55.422Z,37.05
2023-02-07T09:48:04.486Z,36.45
2023-02-07T09:51:11.796Z,38.43
2023-02-07T09:54:22.791Z,39.60
2023-02-07T09:57:29.635Z,40.28
2023-02-07T10:00:37.861Z,37.81
2023-02-07T10:03:49.297Z,36.05
2023-02-07T10:07:07.520Z,35.07
2023-02-07T10:10:15.468Z,34.11
2023-02-07T10:13:46.741Z,33.73
2023-02-07T10:17:04.407Z,31.23
2023-02-07T10:20:26.653Z,31.05
2023-02-07T10:23:41.394Z,33.90
2023-02-07T10:26:50.046Z,34.00
2023-02-07T10:29:58.430Z,34.63
2023-02-07T10:33:06.582Z,34.71
2023-02-07T10:36:14.958Z,33.25
2023-02-07T10:39:25.990Z,35.66
2023-02-07T10:42:31.695Z,36.56
2023-02-07T10:45:34.566Z,35.63
2023-02-07T10:48:38.900Z,37.10
2023-02-07T10:51:44.688Z,38.97
2023-02-07T10:54:53.652Z,36.89
2023-02-07T10:58:02.794Z,36.18
2023-02-07T11:01:19.116Z,35.47
2023-02-07T11:04:35.750Z,34.52
2023-02-07T11:07:47.596Z,32.24
2023-02-07T11:10:52.510Z,34.05
2023-02-07T11:14:03.500Z,34.58
2023-02-07T11:17:06.595Z,34.28
2023-02-07T11:20:20.581Z,33.38
2023-02-07T11:23:25.978Z,33.29
2023-02-07T11:26:30.570Z,37.00
2023-02-07T11:29:43.975Z,36.38
2023-02-07T11:32:55.695Z,35.77
2023-02-07T11:36:02.565Z,34.41
2023-02-07T11:39:15.908Z,33.29
2023-02-07T11:42:20.962Z,31.69
2023-02-07T11:45:24.372Z,32.46
2023-02-07T11:48:30.269Z,33.11
2023-02-07T11:51:35.317Z,31.73
2023-02-07T11:54:42.530Z,33.07
2023-02-07T11:57:46.383Z,30.67
2023-02-07T12:00:49.876Z,28.95
2023-02-07T12:04:00.807Z,28.23
2023-02-07T12:07:08.604Z,25.15
2023-02-07T12:10:16.261Z,26.26
2023-02-07T12:13:24.521Z,26.43
2023-02-07T12:16:34.287Z,27.79
2023-02-07T12:19:49.862Z,29.53
2023-02-07T12:23:11.785Z,28.58
2023-02-07T12:26:27.408Z,27.96
2023-02-07T12:29:43.146Z,26.89
2023-02-07T12:32:55.624Z,26.52
2023-02-07T12:36:07.718Z,26.43
2023-02-07T12:39:20.452Z,29.44
2023-02-07T12:42:33.153Z,29.73
2023-02-07T12:45:54.315Z,29.30
2023-02-07T12:49:16.351Z,30.38
2023-02-07T12:52:32.403Z,30.46
2023-02-07T12:55:45.785Z,30.78
2023-02-07T12:59:00.656Z,30.79
2023-02-07T13:02:26.772Z,31.07
2023-02-07T13:05:50.993Z,30.63
2023-02-07T13:09:02.717Z,29.45
2023-02-07T13:12:15.344Z,31.05
2023-02-07T13:15:27.090Z,34.11
2023-02-07T13:18:41.483Z,37.45
2023-02-07T13:21:50.946Z,36.93
2023-02-07T13:24:55.494Z,37.13
2023-02-07T13:28:03.892Z,38.10
2023-02-07T13:31:15.871Z,38.44
2023-02-07T13:34:23.163Z,38.38
2023-02-07T13:37:38.031Z,37.96
2023-02-07T13:40:54.060Z,35.91
2023-02-07T13:44:10.021Z,36.55
2023-02-07T13:47:36.961Z,36.47
2023-02-07T13:50:47.086Z,37.36
2023-02-07T13:53:59.006Z,36.25
2023-02-07T13:57:21.540Z,35.10
2023-02-07T14:00:27.963Z,33.85
2023-02-07T14:03:35.843Z,32.36
2023-02-07T14:06:40.617Z,32.61
2023-02-07T14:09:47.638Z,33.15
2023-02-07T14:12:53.009Z,33.76
2023-02-07T14:16:02.723Z,31.91
2023-02-07T14:19:12.855Z,33.12
2023-02-07T14:22:20.064Z,32.87
2023-02-07T14:25:24.759Z,34.70
2023-02-07T14:28:32.947Z,33.68
2023-02-07T14:31:35.840Z,33.37
2023-02-07T14:35:02.182Z,33.73
2023-02-07T14:38:22.656Z,35.50
2023-02-07T14:41:29.595Z,35.16
2023-02-07T14:44:35.707Z,34.48
2023-02-07T14:47:39.039Z,34.56
2023-02-07T14:50:52.784Z,34.59
2023-02-07T14:54:03.098Z,36.35
2023-02-07T14:57:16.166Z,37.96
2023-02-07T15:00:28.718Z,38.79
2023-02-07T15:03:34.602Z,40.58
2023-02-07T15:06:42.196Z,40.94
2023-02-07T15:09:46.182Z,41.89
2023-02-07T15:12:50.505Z,43.54
2023-02-07T15:15:57.591Z,45.41
2023-02-07T15:19:02.397Z,45.76
2023-02-07T15:22:20.421Z,46.19
2023-02-07T15:25:30.828Z,46.41
2023-02-07T15:28:35.207Z,46.39
2023-02-07T15:31:39.516Z,47.20
2023-02-07T15:34:45.257Z,48.76
2023-02-07T15:37:50.774Z,49.38
2023-02-07T15:40:55.325Z,48.28
2023-02-07T15:44:00.343Z,48.61
2023-02-07T15:47:36.110Z,50.08
2023-02-07T15:50:39.255Z,50.33
2023-02-07T15:53:43.840Z,51.02
2023-02-07T15:56:50.177Z,51.42
2023-02-07T15:59:55.827Z,51.20
2023-02-07T16:03:01.787Z,51.26
2023-02-07T16:06:11.077Z,52.97
2023-02-07T16:09:40.863Z,51.75
2023-02-07T16:12:45.485Z,52.81
2023-02-07T16:15:57.167Z,52.56
2023-02-07T16:19:06.203Z,54.20
2023-02-07T16:22:13.968Z,53.14
2023-02-07T16:25:21.560Z,53.11
2023-02-07T16:28:25.010Z,54.93
2023-02-07T16:31:28.736Z,53.97
2023-02-07T16:34:31.537Z,53.91
2023-02-07T16:37:34.286Z,54.27
2023-02-07T16:40:40.329Z,53.62
2023-02-07T16:43:43.220Z,55.24
2023-02-07T16:46:46.163Z,54.62
2023-02-07T16:49:49.160Z,54.67
2023-02-07T16:52:54.664Z,54.53
2023-02-07T16:55:59.710Z,55.54
2023-02-07T16:59:03.981Z,55.50
2023-02-07T17:02:12.858Z,55.78
2023-02-07T17:05:16.200Z,56.50
2023-02-07T17:08:27.724Z,56.28
2023-02-07T17:11:32.003Z,56.87
2023-02-07T17:14:36.361Z,56.07
2023-02-07T17:17:39.525Z,56.27
2023-02-07T17:20:43.551Z,57.02
2023-02-07T17:23:47.786Z,61.65
2023-02-07T17:26:54.530Z,58.08
2023-02-07T17:29:57.564Z,58.22
2023-02-07T17:33:00.340Z,57.59
2023-02-07T17:36:03.520Z,57.23
2023-02-07T17:39:07.019Z,56.90
2023-02-07T17:42:11.291Z,57.52
2023-02-07T17:45:14.424Z,58.23
2023-02-07T17:48:17.439Z,57.94
2023-02-07T17:51:22.732Z,57.34
2023-02-07T17:54:25.706Z,57.64
2023-02-07T17:57:30.076Z,57.41
2023-02-07T18:00:36.674Z,57.86
2023-02-07T18:03:39.620Z,57.75
2023-02-07T18:06:43.869Z,57.75
2023-02-07T18:09:47.253Z,57.72
2023-02-07T18:12:51.790Z,58.00
2023-02-07T18:15:54.824Z,58.34
2023-02-07T18:18:58.249Z,58.90
2023-02-07T18:22:01.613Z,58.91
2023-02-07T18:25:05.121Z,58.68
2023-02-07T18:28:09.588Z,59.39
2023-02-07T18:31:32.290Z,59.80
2023-02-07T18:34:35.349Z,59.54
2023-02-07T18:37:38.472Z,59.13
2023-02-07T18:40:41.742Z,59.29
2023-02-07T18:43:47.227Z,58.91
2023-02-07T18:46:50.267Z,59.42
2023-02-07T18:49:53.372Z,58.32
2023-02-07T18:52:56.454Z,59.15
2023-02-07T18:56:03.506Z,59.07
2023-02-07T18:59:09.350Z,59.27
2023-02-07T19:02:13.200Z,59.36
2023-02-07T19:05:16.613Z,59.16
2023-02-07T19:08:19.682Z,58.72
2023-02-07T19:11:22.997Z,59.96
2023-02-07T19:14:30.862Z,59.57
2023-02-07T19:17:34.620Z,59.66
2023-02-07T19:20:41.795Z,60.27
2023-02-07T19:23:46.167Z,60.15
2023-02-07T19:26:51.504Z,60.19
2023-02-07T19:29:55.917Z,59.61
2023-02-07T19:32:59.119Z,60.35
2023-02-07T19:36:05.763Z,59.91
2023-02-07T19:39:08.788Z,60.32
2023-02-07T19:42:11.720Z,59.44
2023-02-07T19:45:17.595Z,59.89
2023-02-07T19:48:21.244Z,60.60
2023-02-07T19:51:27.339Z,60.12
2023-02-07T19:54:30.270Z,60.19
2023-02-07T19:57:34.900Z,60.88
2023-02-07T20:00:39.350Z,61.68
2023-02-07T20:03:44.304Z,61.65
2023-02-07T20:06:47.321Z,60.51
2023-02-07T20:09:50.572Z,60.43
2023-02-07T20:12:53.612Z,60.55
2023-02-07T20:15:58.031Z,60.61
2023-02-07T20:19:01.787Z,60.20
2023-02-07T20:22:05.105Z,60.37
2023-02-07T20:25:08.455Z,59.72
2023-02-07T20:28:11.646Z,59.99
2023-02-07T20:31:18.794Z,59.82
2023-02-07T20:34:21.775Z,60.93
2023-02-07T20:37:24.931Z,60.92
2023-02-07T20:40:28.082Z,59.42
2023-02-07T20:43:30.978Z,59.86
2023-02-07T20:46:36.164Z,58.63
2023-02-07T20:49:39.248Z,59.05
2023-02-07T20:52:42.654Z,59.59
2023-02-07T20:56:08.791Z,58.67
2023-02-07T20:59:16.050Z,58.76
2023-02-07T21:02:20.372Z,58.31
2023-02-07T21:05:23.066Z,59.13
2023-02-07T21:08:26.090Z,58.93
2023-02-07T21:11:33.861Z,58.64
2023-02-07T21:14:37.062Z,58.47
2023-02-07T21:17:41.748Z,58.59
2023-02-07T21:20:44.675Z,59.44
2023-02-07T21:23:48.118Z,59.22
2023-02-07T21:26:52.959Z,59.32
2023-02-07T21:29:56.372Z,59.85
2023-02-07T21:33:01.414Z,59.90
2023-02-07T21:36:06.242Z,59.98
2023-02-07T21:39:12.017Z,59.60
2023-02-07T21:42:14.970Z,60.27
2023-02-07T21:45:18.250Z,60.82
2023-02-07T21:48:22.362Z,61.11
2023-02-07T21:51:26.420Z,61.42
2023-02-07T21:54:29.220Z,61.13
2023-02-07T21:57:31.974Z,61.14
2023-02-07T22:00:34.842Z,61.17
2023-02-07T22:03:59.350Z,61.32
2023-02-07T22:07:02.054Z,61.23
2023-02-07T22:10:05.293Z,60.98
2023-02-07T22:13:08.042Z,61.46
2023-02-07T22:16:12.469Z,62.04
2023-02-07T22:19:17.347Z,61.99
2023-02-07T22:22:20.127Z,62.22
2023-02-07T22:25:22.953Z,61.80
2023-02-07T22:28:25.844Z,62.21
2023-02-07T22:31:30.779Z,62.53
2023-02-07T22:34:35.114Z,62.30
2023-02-07T22:37:37.926Z,64.17
2023-02-07T22:40:42.450Z,63.48
2023-02-07T22:43:45.710Z,64.34
2023-02-07T22:46:48.464Z,64.21
2023-02-07T22:49:53.048Z,63.96
2023-02-07T22:52:56.451Z,64.35
2023-02-07T22:56:01.154Z,64.32
2023-02-07T22:59:04.310Z,64.67
2023-02-07T23:02:07.218Z,64.56
2023-02-07T23:05:11.627Z,64.76
2023-02-07T23:08:14.768Z,65.10
2023-02-07T23:11:18.867Z,65.68
2023-02-07T23:14:21.787Z,66.96
2023-02-07T23:17:24.526Z,66.79
2023-02-07T23:20:30.036Z,66.76
2023-02-07T23:23:32.867Z,66.73
2023-02-07T23:26:35.634Z,67.28
2023-02-07T23:29:38.442Z,67.96
2023-02-07T23:32:41.936Z,68.13
2023-02-07T23:35:46.005Z,67.80
2023-02-07T23:38:49.424Z,68.59
2023-02-07T23:41:52.142Z,68.44
2023-02-07T23:44:54.917Z,69.75
2023-02-07T23:47:58.304Z,69.62
2023-02-07T23:51:03.946Z,69.68
2023-02-07T23:54:06.670Z,69.85
2023-02-07T23:57:09.314Z,70.34
